Time;durP1;ratioP1;P1;durP2;ratioP2;P2;SDS_P1;SDS_P2;PMS_P1;PMS_P2;Temp;Humidity;BMP_temperature;BMP_pressure;BME280_temperature;BME280_humidity;BME280_pressure;Samples;Min_cycle;Max_cycle;Signal;HPM_P1;HPM_P2
2022/07/14 00:01:43;;;;;;;3.88;1.23;;;21.60;93.50;;;;;;5066169;28;20040;-50
2022/07/14 00:04:10;;;;;;;4.78;1.15;;;21.50;93.70;;;;;;5064939;28;20116;-52
2022/07/14 00:06:36;;;;;;;4.85;1.48;;;21.40;93.90;;;;;;5056184;28;20032;-50
2022/07/14 00:09:02;;;;;;;3.47;1.50;;;21.40;94.00;;;;;;5045007;28;20033;-50
2022/07/14 00:11:28;;;;;;;5.60;1.23;;;21.40;93.80;;;;;;5064388;28;20032;-50
2022/07/14 00:13:54;;;;;;;4.40;2.80;;;21.50;93.90;;;;;;5063798;28;20035;-50
2022/07/14 00:16:20;;;;;;;14.30;8.90;;;21.40;93.90;;;;;;5011788;28;20036;-50
2022/07/14 00:18:46;;;;;;;9.10;6.22;;;21.40;93.90;;;;;;5062729;28;20059;-51
2022/07/14 00:21:15;;;;;;;3.92;2.72;;;21.40;94.10;;;;;;5062456;28;20374;-51
2022/07/14 00:23:42;;;;;;;5.90;3.40;;;21.40;94.00;;;;;;5063083;28;20119;-50
2022/07/14 00:26:10;;;;;;;7.07;4.68;;;21.40;94.00;;;;;;5063662;28;20522;-50
2022/07/14 00:28:36;;;;;;;7.78;5.82;;;21.40;94.10;;;;;;5063490;28;20037;-50
2022/07/14 00:31:09;;;;;;;8.10;7.20;;;21.40;94.20;;;;;;5060818;28;20477;-50
2022/07/14 00:33:36;;;;;;;8.45;5.88;;;21.40;94.10;;;;;;5062171;28;20376;-51
2022/07/14 00:36:02;;;;;;;6.65;5.00;;;21.50;94.50;;;;;;5059404;28;20024;-52
2022/07/14 00:38:28;;;;;;;5.88;3.95;;;21.40;94.30;;;;;;5064060;28;20056;-50
2022/07/14 00:40:54;;;;;;;13.00;11.48;;;21.40;94.40;;;;;;5065983;28;20036;-50
2022/07/14 00:43:19;;;;;;;8.52;6.85;;;21.30;94.50;;;;;;5060579;28;20024;-50
2022/07/14 00:45:45;;;;;;;7.50;4.20;;;21.30;94.60;;;;;;5059848;28;20507;-51
2022/07/14 00:48:16;;;;;;;6.93;4.18;;;21.20;94.70;;;;;;5063277;28;20064;-50
2022/07/14 00:50:44;;;;;;;4.03;3.00;;;21.20;94.80;;;;;;5063578;28;20036;-50
2022/07/14 00:53:11;;;;;;;5.55;3.30;;;21.20;94.80;;;;;;5060257;28;20078;-50
2022/07/14 00:55:39;;;;;;;7.07;4.45;;;21.10;94.90;;;;;;5065274;28;20610;-49
2022/07/14 00:58:05;;;;;;;6.13;3.03;;;21.10;95.50;;;;;;5065474;28;20036;-51
2022/07/14 01:00:31;;;;;;;4.22;2.53;;;21.10;95.20;;;;;;5062617;28;20029;-49
2022/07/14 01:02:57;;;;;;;3.30;2.72;;;21.10;95.30;;;;;;5057734;28;20037;-51
2022/07/14 01:05:23;;;;;;;5.43;1.90;;;21.10;95.80;;;;;;5061296;28;20155;-49
2022/07/14 01:07:49;;;;;;;3.72;1.88;;;21.00;95.40;;;;;;5064695;28;20097;-49
2022/07/14 01:10:15;;;;;;;4.15;2.90;;;21.00;95.60;;;;;;4991778;28;20044;-51
2022/07/14 01:12:46;;;;;;;3.75;1.98;;;21.00;96.00;;;;;;5053993;28;20499;-51
2022/07/14 01:15:14;;;;;;;3.47;1.95;;;21.00;95.80;;;;;;5064908;28;20464;-49
2022/07/14 01:17:40;;;;;;;3.65;1.98;;;21.00;95.70;;;;;;5063659;28;20468;-51
2022/07/14 01:20:06;;;;;;;5.75;2.33;;;21.10;96.40;;;;;;5062607;28;20106;-50
2022/07/14 01:22:32;;;;;;;2.38;1.70;;;21.10;95.90;;;;;;5004708;28;20044;-49
2022/07/14 01:24:58;;;;;;;3.60;1.98;;;21.10;96.00;;;;;;5064790;28;20028;-51
2022/07/14 01:27:23;;;;;;;3.13;1.50;;;21.10;96.20;;;;;;5061131;28;20028;-51
2022/07/14 01:29:49;;;;;;;3.83;2.65;;;21.00;95.90;;;;;;5062074;28;20701;-50
2022/07/14 01:32:15;;;;;;;5.82;1.75;;;21.10;96.40;;;;;;5027318;28;20480;-49
2022/07/14 01:34:41;;;;;;;2.22;1.48;;;21.00;96.10;;;;;;5060622;28;20064;-51
2022/07/14 01:37:06;;;;;;;2.30;1.40;;;21.00;96.30;;;;;;5058822;28;20028;-49
2022/07/14 01:39:32;;;;;;;4.15;1.45;;;;;;;;;;5060609;28;20447;-49
2022/07/14 01:41:58;;;;;;;2.33;1.70;;;21.00;96.40;;;;;;5064209;28;20036;-50
2022/07/14 01:44:24;;;;;;;4.97;2.08;;;20.90;96.20;;;;;;5063564;28;20028;-52
2022/07/14 01:46:50;;;;;;;2.40;1.45;;;20.90;96.60;;;;;;5062713;28;20066;-51
2022/07/14 01:49:15;;;;;;;4.55;1.55;;;20.90;96.20;;;;;;5055507;28;20030;-51
2022/07/14 01:51:41;;;;;;;4.38;1.95;;;20.90;96.40;;;;;;5063884;28;20464;-49
2022/07/14 01:54:07;;;;;;;3.20;1.55;;;20.90;96.30;;;;;;5062366;28;20021;-50
2022/07/14 01:56:41;;;;;;;5.05;1.70;;;20.90;96.60;;;;;;5063967;28;20025;-50
2022/07/14 01:59:07;;;;;;;4.35;2.38;;;21.00;96.50;;;;;;5060588;28;20116;-50
2022/07/14 02:01:40;;;;;;;20.70;3.95;;;20.90;96.50;;;;;;5065677;28;20052;-50
2022/07/14 02:04:10;;;;;;;3.33;1.48;;;20.90;96.80;;;;;;5063546;28;20472;-51
2022/07/14 02:06:47;;;;;;;3.17;1.73;;;21.00;96.90;;;;;;5055506;28;20041;-49
2022/07/14 02:09:13;;;;;;;4.00;1.80;;;20.90;96.90;;;;;;5063038;28;20062;-50
2022/07/14 02:12:25;;;;;;;4.88;1.60;;;20.90;96.70;;;;;;5063639;28;20476;-51
2022/07/14 02:14:26;;;;;;;2.13;1.85;;;20.90;97.10;;;;;;5049802;28;20044;-50
2022/07/14 02:16:51;;;;;;;2.08;1.35;;;20.80;97.10;;;;;;5011575;28;20036;-50
2022/07/14 02:19:17;;;;;;;3.90;1.50;;;20.80;97.00;;;;;;4993200;28;20048;-51
2022/07/14 02:21:43;;;;;;;2.60;1.50;;;20.80;97.50;;;;;;5050086;28;20071;-49
2022/07/14 02:24:10;;;;;;;2.42;1.33;;;20.80;97.30;;;;;;5001118;28;20515;-51
2022/07/14 02:26:38;;;;;;;4.20;1.50;;;20.90;97.50;;;;;;5063669;28;20028;-49
2022/07/14 02:29:07;;;;;;;2.42;1.52;;;20.90;97.60;;;;;;5063157;28;20480;-51
2022/07/14 02:31:34;;;;;;;4.22;1.70;;;20.90;97.40;;;;;;5061737;28;20028;-51
2022/07/14 02:34:01;;;;;;;3.90;1.80;;;20.90;97.70;;;;;;5061346;28;20115;-50
2022/07/14 02:36:27;;;;;;;4.97;2.03;;;20.90;97.70;;;;;;5058359;28;20036;-50
2022/07/14 02:38:53;;;;;;;3.53;1.77;;;20.90;97.50;;;;;;5060639;28;20047;-50
2022/07/14 02:41:19;;;;;;;4.28;1.70;;;20.90;97.50;;;;;;5061772;28;20107;-51
2022/07/14 02:43:45;;;;;;;4.18;2.08;;;20.90;97.70;;;;;;5053153;28;20116;-50
2022/07/14 02:46:10;;;;;;;2.05;1.40;;;20.90;97.50;;;;;;5063540;28;20061;-49
2022/07/14 02:48:36;;;;;;;2.40;1.40;;;20.90;97.50;;;;;;5063230;28;20069;-50
2022/07/14 02:51:07;;;;;;;4.30;2.28;;;20.90;97.60;;;;;;5062301;28;20050;-51
2022/07/14 02:53:35;;;;;;;3.70;1.50;;;20.80;97.40;;;;;;5061251;28;20062;-51
2022/07/14 02:56:07;;;;;;;4.15;1.42;;;20.90;97.90;;;;;;5024267;28;20036;-51
2022/07/14 02:58:34;;;;;;;2.78;1.60;;;20.80;97.60;;;;;;5024981;28;20049;-52
2022/07/14 03:01:00;;;;;;;3.97;2.15;;;20.80;98.00;;;;;;5061554;28;20036;-51
2022/07/14 03:03:25;;;;;;;5.60;1.45;;;20.80;98.20;;;;;;5025269;28;20041;-50
2022/07/14 03:05:51;;;;;;;3.45;1.65;;;20.80;97.80;;;;;;5050184;28;20059;-50
2022/07/14 03:08:17;;;;;;;4.72;1.92;;;20.80;98.30;;;;;;5054174;28;20029;-51
2022/07/14 03:10:43;;;;;;;4.63;1.73;;;20.80;98.10;;;;;;5060480;28;20029;-50
2022/07/14 03:13:09;;;;;;;6.93;1.90;;;20.80;98.20;;;;;;5025025;28;20092;-51
2022/07/14 03:15:36;;;;;;;2.45;1.60;;;20.80;98.30;;;;;;5054799;28;20025;-50
2022/07/14 03:18:02;;;;;;;3.38;1.75;;;20.80;98.60;;;;;;5025716;28;20132;-50
2022/07/14 03:20:29;;;;;;;3.72;2.03;;;20.70;98.40;;;;;;5062436;28;20032;-51
2022/07/14 03:22:55;;;;;;;4.90;1.90;;;20.80;98.40;;;;;;5061191;28;20029;-50
2022/07/14 03:25:22;;;;;;;3.45;1.50;;;20.70;98.50;;;;;;5009027;28;20040;-51
2022/07/14 03:27:48;;;;;;;6.30;1.77;;;20.80;98.60;;;;;;5060825;28;20038;-51
2022/07/14 03:30:14;;;;;;;6.07;2.53;;;20.70;98.60;;;;;;5008907;28;20091;-50
2022/07/14 03:32:40;;;;;;;9.38;2.33;;;20.70;98.70;;;;;;5059796;28;20025;-50
2022/07/14 03:35:07;;;;;;;7.75;3.00;;;20.80;99.00;;;;;;5057865;28;20484;-51
2022/07/14 03:37:34;;;;;;;16.08;3.10;;;20.80;99.40;;;;;;5022127;28;20071;-51
2022/07/14 03:40:00;;;;;;;11.88;3.30;;;20.90;99.30;;;;;;5053686;28;20049;-51
2022/07/14 03:42:26;;;;;;;7.70;2.55;;;20.90;99.30;;;;;;5062560;28;20116;-51
2022/07/14 03:44:52;;;;;;;5.18;2.40;;;20.80;99.60;;;;;;5040930;28;20564;-51
2022/07/14 03:47:18;;;;;;;6.38;2.83;;;20.90;99.90;;;;;;5061832;28;20096;-50
2022/07/14 03:49:44;;;;;;;6.57;2.40;;;20.80;99.90;;;;;;5053782;28;20099;-50
2022/07/14 03:52:10;;;;;;;5.78;2.25;;;20.80;99.90;;;;;;5063356;28;20024;-49
2022/07/14 03:54:36;;;;;;;3.97;2.22;;;20.80;99.90;;;;;;5065001;28;20032;-49
2022/07/14 03:57:03;;;;;;;5.43;2.10;;;20.80;99.90;;;;;;5066210;28;20048;-50
2022/07/14 03:59:29;;;;;;;14.25;3.20;;;20.90;99.90;;;;;;5057869;28;20376;-50
2022/07/14 04:01:54;;;;;;;14.38;5.18;;;20.90;99.90;;;;;;5034415;28;20029;-49
2022/07/14 04:04:20;;;;;;;12.90;5.20;;;20.90;99.90;;;;;;5064776;28;20040;-50
2022/07/14 04:06:46;;;;;;;14.82;5.88;;;20.90;99.90;;;;;;5068509;28;20036;-51
2022/07/14 04:09:12;;;;;;;19.15;6.13;;;20.90;99.90;;;;;;5065356;28;20469;-51
2022/07/14 04:11:38;;;;;;;18.38;5.78;;;20.90;99.90;;;;;;5065829;28;20105;-50
2022/07/14 04:14:03;;;;;;;16.20;6.38;;;20.90;99.90;;;;;;5058372;28;20033;-49
2022/07/14 04:16:29;;;;;;;16.63;5.53;;;21.00;99.90;;;;;;5019347;28;20559;-52
2022/07/14 04:18:55;;;;;;;11.75;5.15;;;21.10;99.90;;;;;;5011559;28;20153;-51
2022/07/14 04:21:21;;;;;;;14.95;5.57;;;21.20;99.90;;;;;;5030218;28;20095;-50
2022/07/14 04:23:46;;;;;;;10.50;4.07;;;21.20;99.90;;;;;;5049910;28;20037;-52
2022/07/14 04:26:12;;;;;;;14.68;4.55;;;21.30;99.90;;;;;;5049629;28;20035;-51
2022/07/14 04:28:38;;;;;;;14.80;4.45;;;21.30;99.90;;;;;;5050244;28;20040;-50
2022/07/14 04:31:04;;;;;;;8.30;3.55;;;21.40;99.90;;;;;;5017781;28;20033;-52
2022/07/14 04:33:30;;;;;;;8.88;2.45;;;21.40;99.90;;;;;;5050185;28;20040;-51
2022/07/14 04:35:56;;;;;;;9.13;3.03;;;21.50;99.90;;;;;;5014238;28;20064;-51
2022/07/14 04:38:25;;;;;;;5.53;2.50;;;21.50;99.90;;;;;;5034690;28;20574;-53
2022/07/14 04:40:53;;;;;;;7.30;2.28;;;21.60;99.90;;;;;;5030227;28;20056;-52
2022/07/14 04:43:19;;;;;;;5.07;2.13;;;21.70;99.90;;;;;;5028934;28;20132;-51
2022/07/14 04:45:48;;;;;;;11.90;3.20;;;21.70;99.90;;;;;;5031052;28;20037;-51
2022/07/14 04:48:14;;;;;;;5.40;2.05;;;21.80;99.90;;;;;;5029195;28;20440;-53
2022/07/14 04:53:24;;;;;;;3.10;1.70;;;21.90;99.90;;;;;;5059891;28;20151;-51
2022/07/14 04:55:50;;;;;;;3.65;1.95;;;22.00;99.90;;;;;;5061141;28;20123;-52
2022/07/14 04:58:16;;;;;;;3.35;1.55;;;22.00;99.90;;;;;;5029816;28;20059;-53
2022/07/14 05:00:42;;;;;;;4.88;2.22;;;22.10;99.90;;;;;;5066285;28;20135;-51
2022/07/14 05:03:08;;;;;;;5.40;1.90;;;22.20;99.90;;;;;;5064296;28;20028;-53
2022/07/14 05:05:33;;;;;;;6.50;1.85;;;22.20;99.90;;;;;;5053231;28;20039;-52
2022/07/14 05:07:59;;;;;;;3.15;1.60;;;22.40;99.90;;;;;;5064671;28;20419;-53
2022/07/14 05:10:25;;;;;;;8.68;1.95;;;22.50;99.90;;;;;;5046622;28;20049;-51
2022/07/14 05:12:51;;;;;;;4.22;2.08;;;22.60;99.90;;;;;;5061130;28;20029;-51
2022/07/14 05:15:16;;;;;;;3.10;1.48;;;22.70;99.90;;;;;;5063531;28;20043;-53
2022/07/14 05:17:43;;;;;;;3.85;1.77;;;22.80;99.90;;;;;;5065953;28;20075;-51
2022/07/14 05:20:09;;;;;;;4.43;1.40;;;22.90;99.90;;;;;;5066666;28;20715;-52
2022/07/14 05:22:40;;;;;;;3.42;1.50;;;23.00;99.90;;;;;;4990726;28;20061;-53
2022/07/14 05:25:10;;;;;;;3.17;1.60;;;23.10;99.90;;;;;;5022997;28;20029;-52
2022/07/14 05:27:36;;;;;;;7.72;2.13;;;23.20;99.90;;;;;;5025367;28;20084;-52
2022/07/14 05:30:07;;;;;;;4.07;2.05;;;23.30;99.90;;;;;;5029230;28;20087;-50
2022/07/14 05:32:35;;;;;;;5.75;2.10;;;23.30;99.90;;;;;;5020500;28;20456;-52
2022/07/14 05:35:01;;;;;;;2.80;1.77;;;23.50;99.90;;;;;;5028168;28;20029;-52
2022/07/14 05:37:27;;;;;;;4.85;1.70;;;23.60;99.90;;;;;;5025159;28;20518;-51
2022/07/14 05:39:52;;;;;;;5.88;2.00;;;23.70;99.90;;;;;;5014848;28;20057;-52
2022/07/14 05:42:22;;;;;;;2.85;1.52;;;23.70;99.90;;;;;;5042193;28;20134;-53
2022/07/14 05:44:49;;;;;;;3.40;1.40;;;23.80;99.90;;;;;;5039223;28;20485;-52
2022/07/14 05:47:15;;;;;;;4.68;1.88;;;24.00;99.40;;;;;;5043678;28;20092;-53
2022/07/14 05:49:42;;;;;;;5.70;1.83;;;24.10;99.00;;;;;;5049363;28;20017;-53
2022/07/14 05:52:12;;;;;;;3.42;1.90;;;24.30;98.60;;;;;;5044336;28;20037;-53
2022/07/14 05:54:38;;;;;;;1.67;1.33;;;24.40;98.90;;;;;;5047928;28;20043;-53
2022/07/14 05:57:04;;;;;;;3.80;1.60;;;24.40;98.10;;;;;;5048445;28;20056;-51
2022/07/14 05:59:29;;;;;;;3.33;1.50;;;24.50;98.20;;;;;;5047892;28;20045;-53
2022/07/14 06:01:55;;;;;;;4.68;1.90;;;24.60;98.10;;;;;;5043426;28;20108;-51
2022/07/14 06:04:21;;;;;;;1.88;1.27;;;24.70;98.00;;;;;;5043764;28;20044;-53
2022/07/14 06:06:48;;;;;;;4.25;1.48;;;24.80;97.00;;;;;;5046972;28;20045;-51
2022/07/14 06:09:15;;;;;;;3.03;1.20;;;24.80;97.10;;;;;;5048906;28;20071;-51
2022/07/14 06:11:44;;;;;;;3.70;1.65;;;24.80;96.70;;;;;;5047882;28;20029;-52
2022/07/14 06:14:10;;;;;;;4.70;1.73;;;24.90;96.20;;;;;;5043808;28;20029;-52
2022/07/14 06:16:36;;;;;;;4.95;1.35;;;24.90;96.40;;;;;;5045400;28;20488;-53
2022/07/14 06:19:02;;;;;;;5.82;1.42;;;25.10;96.90;;;;;;5048237;28;20037;-52
2022/07/14 06:21:27;;;;;;;3.00;1.45;;;25.10;96.20;;;;;;5047873;28;20060;-54
2022/07/14 06:23:54;;;;;;;2.75;1.48;;;25.20;96.00;;;;;;5042183;28;20140;-54
2022/07/14 06:26:19;;;;;;;7.10;1.60;;;25.20;95.80;;;;;;5027373;28;20425;-52
2022/07/14 06:28:46;;;;;;;5.60;1.42;;;25.30;96.20;;;;;;5043124;28;20086;-51
2022/07/14 06:31:13;;;;;;;3.95;1.50;;;25.40;95.90;;;;;;5029642;28;20053;-53
2022/07/14 06:33:38;;;;;;;3.70;1.33;;;25.50;95.80;;;;;;5044473;28;20043;-52
2022/07/14 06:36:06;;;;;;;4.88;1.42;;;25.50;95.40;;;;;;5046138;28;20025;-52
2022/07/14 06:38:33;;;;;;;2.63;1.25;;;;;;;;;;5047569;28;20057;-53
2022/07/14 06:40:58;;;;;;;2.22;1.30;;;25.60;94.90;;;;;;5067215;28;20028;-51
2022/07/14 06:43:24;;;;;;;3.92;1.50;;;25.80;95.70;;;;;;5066351;28;20487;-53
2022/07/14 06:45:50;;;;;;;2.67;1.08;;;25.90;95.50;;;;;;5063900;28;20033;-51
2022/07/14 06:48:18;;;;;;;2.47;1.25;;;;;;;;;;5057969;28;20051;-52
2022/07/14 06:50:45;;;;;;;5.30;1.38;;;26.10;99.90;;;;;;5018263;28;20392;-55
2022/07/14 06:53:11;;;;;;;3.63;1.60;;;26.20;94.40;;;;;;5067362;28;20083;-54
2022/07/14 06:55:37;;;;;;;3.15;1.30;;;26.30;94.80;;;;;;5063801;28;20497;-53
2022/07/14 06:58:03;;;;;;;4.45;1.55;;;26.50;95.60;;;;;;5061272;28;20098;-53
2022/07/14 07:00:29;;;;;;;2.05;1.25;;;;;;;;;;5061733;28;20036;-51
2022/07/14 07:02:55;;;;;;;2.55;1.10;;;26.70;99.90;;;;;;5064677;28;20056;-54
2022/07/14 07:08:05;;;;;;;2.50;1.77;;;26.80;94.60;;;;;;5062001;28;20115;-51
2022/07/14 07:10:31;;;;;;;5.22;1.27;;;26.90;94.40;;;;;;5065364;28;20458;-54
2022/07/14 07:12:57;;;;;;;2.97;1.25;;;27.00;94.00;;;;;;5059410;28;20033;-54
2022/07/14 07:15:23;;;;;;;2.97;1.35;;;27.00;93.20;;;;;;5027634;28;20051;-53
2022/07/14 07:17:49;;;;;;;3.22;1.42;;;27.00;93.00;;;;;;5067715;28;20021;-51
2022/07/14 07:20:15;;;;;;;2.63;1.30;;;27.00;93.40;;;;;;5062806;28;20381;-52
2022/07/14 07:22:41;;;;;;;3.45;1.48;;;27.30;97.30;;;;;;5012245;28;20025;-53
2022/07/14 07:25:08;;;;;;;1.65;1.25;;;;;;;;;;5041378;28;20103;-51
2022/07/14 07:27:33;;;;;;;2.75;1.30;;;27.50;99.40;;;;;;5049466;28;20037;-55
2022/07/14 07:30:01;;;;;;;2.42;1.38;;;27.40;92.20;;;;;;5060693;28;20071;-52
2022/07/14 07:32:27;;;;;;;1.80;1.20;;;;;;;;;;5063671;28;20035;-54
2022/07/14 07:34:54;;;;;;;3.60;1.20;;;27.70;96.40;;;;;;5068173;28;20035;-53
2022/07/14 07:37:20;;;;;;;2.67;1.40;;;;;;;;;;5070954;28;20090;-53
2022/07/14 07:39:45;;;;;;;3.53;1.30;;;27.70;92.00;;;;;;5066893;28;20126;-53
2022/07/14 07:42:11;;;;;;;1.92;1.20;;;27.80;92.20;;;;;;5070567;28;20468;-54
2022/07/14 07:44:37;;;;;;;3.65;1.23;;;27.80;92.30;;;;;;5070442;28;20149;-51
2022/07/14 07:47:03;;;;;;;3.63;1.55;;;28.00;93.70;;;;;;5030562;28;20036;-53
2022/07/14 07:49:29;;;;;;;2.42;1.13;;;28.00;91.70;;;;;;5072506;28;20396;-54
2022/07/14 07:51:59;;;;;;;3.58;1.00;;;28.10;92.40;;;;;;5069860;28;20028;-54
2022/07/14 07:54:26;;;;;;;3.63;1.60;;;;;;;;;;5070537;28;20068;-54
2022/07/14 07:56:52;;;;;;;2.92;1.50;;;28.40;99.00;;;;;;5063188;28;20373;-52
2022/07/14 07:59:18;;;;;;;6.60;1.90;;;28.40;91.80;;;;;;5001966;28;20048;-52
2022/07/14 08:01:44;;;;;;;3.80;1.40;;;;;;;;;;5066390;28;20020;-55
2022/07/14 08:04:10;;;;;;;2.38;1.27;;;28.60;96.80;;;;;;5029322;28;20433;-54
2022/07/14 08:06:36;;;;;;;7.75;1.95;;;28.50;98.10;;;;;;5028562;28;20065;-54
2022/07/14 08:09:02;;;;;;;2.92;1.17;;;28.60;92.10;;;;;;5028225;28;20112;-52
2022/07/14 08:11:29;;;;;;;4.47;1.85;;;28.60;91.30;;;;;;5024426;28;20092;-51
2022/07/14 08:13:54;;;;;;;3.97;1.45;;;28.70;91.60;;;;;;5028000;28;20184;-54
2022/07/14 08:16:20;;;;;;;5.18;1.60;;;28.80;92.10;;;;;;4964636;28;20037;-52
2022/07/14 08:18:46;;;;;;;3.45;1.35;;;29.00;95.50;;;;;;5026866;28;20049;-55
2022/07/14 08:21:13;;;;;;;3.05;1.40;;;29.10;92.30;;;;;;5024403;28;20042;-53
2022/07/14 08:23:39;;;;;;;6.15;2.22;;;;;;;;;;5022291;28;20078;-54
2022/07/14 08:26:05;;;;;;;3.15;1.50;;;29.30;97.70;;;;;;5025413;28;20366;-53
2022/07/14 08:28:31;;;;;;;5.80;1.70;;;29.30;91.60;;;;;;5023042;28;20169;-55
2022/07/14 08:30:56;;;;;;;6.90;1.70;;;29.50;91.10;;;;;;4977888;28;20041;-50
2022/07/14 08:33:22;;;;;;;10.05;1.77;;;29.50;91.40;;;;;;4976559;28;20041;-53
2022/07/14 08:35:48;;;;;;;5.82;1.50;;;29.60;91.00;;;;;;5056600;28;20119;-54
2022/07/14 08:38:14;;;;;;;4.50;1.73;;;29.70;90.50;;;;;;5066710;28;20025;-53
2022/07/14 08:40:40;;;;;;;3.35;1.80;;;29.60;90.90;;;;;;5068254;28;20503;-53
2022/07/14 08:43:06;;;;;;;17.27;4.35;;;;;;;;;;5031199;28;20041;-53
2022/07/14 08:45:39;;;;;;;37.95;11.77;;;29.90;99.90;;;;;;5069987;28;20472;-54
2022/07/14 08:48:06;;;;;;;5.70;2.20;;;29.80;90.30;;;;;;5070424;28;20120;-54
2022/07/14 08:50:33;;;;;;;11.98;2.15;;;;;;;;;;5067975;28;20480;-51
2022/07/14 08:53:04;;;;;;;5.93;1.60;;;;;;;;;;5060797;28;20033;-51
2022/07/14 08:55:31;;;;;;;3.53;1.70;;;;;;;;;;5033651;28;20166;-58
2022/07/14 08:57:57;;;;;;;4.25;1.50;;;30.30;99.90;;;;;;5065858;28;20444;-59
2022/07/14 09:00:23;;;;;;;28.63;8.20;;;;;;;;;;5071625;28;20065;-56
2022/07/14 09:02:55;;;;;;;4.07;1.55;;;30.30;92.30;;;;;;5069579;28;20063;-57
2022/07/14 09:05:22;;;;;;;4.68;1.38;;;;;;;;;;5069354;28;20040;-55
2022/07/14 09:07:55;;;;;;;3.70;1.40;;;;;;;;;;5070246;28;20047;-57
2022/07/14 09:10:23;;;;;;;3.08;1.40;;;;;;;;;;5067657;28;20511;-57
2022/07/14 09:12:49;;;;;;;8.65;1.92;;;;;;;;;;5069931;28;20056;-57
2022/07/14 09:18:02;;;;;;;6.32;1.73;;;;;;;;;;5063582;28;20563;-57
2022/07/14 09:20:36;;;;;;;4.65;1.65;;;31.00;97.00;;;;;;5071353;28;20091;-54
2022/07/14 09:23:04;;;;;;;2.63;1.65;;;31.10;94.10;;;;;;5064647;28;20116;-60
2022/07/14 09:25:32;;;;;;;3.60;1.90;;;31.10;94.30;;;;;;5068791;28;20021;-57
2022/07/14 09:27:58;;;;;;;18.13;3.17;;;;;;;;;;5067538;28;20091;-56
2022/07/14 09:30:25;;;;;;;6.72;1.40;;;31.20;99.90;;;;;;5070485;28;20032;-54
2022/07/14 09:32:52;;;;;;;6.43;2.00;;;;;;;;;;5068547;28;20025;-53
2022/07/14 09:35:23;;;;;;;4.25;2.30;;;31.40;96.00;;;;;;5041977;28;20476;-51
2022/07/14 09:37:50;;;;;;;9.77;1.80;;;31.40;93.40;;;;;;5063662;28;20082;-50
2022/07/14 09:40:27;;;;;;;5.65;1.45;;;31.60;95.00;;;;;;5067506;28;20045;-51
2022/07/14 09:42:57;;;;;;;4.45;1.52;;;;;;;;;;5068797;28;20036;-51
2022/07/14 09:45:45;;;;;;;5.47;1.90;;;31.90;99.90;;;;;;5065540;28;20036;-52
2022/07/14 09:48:38;;;;;;;3.92;1.75;;;;;;;;;;5050667;28;20044;-52
2022/07/14 09:51:08;;;;;;;9.63;1.90;;;32.30;99.90;;;;;;5043541;28;20265;-54
2022/07/14 09:53:35;;;;;;;6.20;2.28;;;;;;;;;;5068370;28;20021;-51
2022/07/14 09:56:02;;;;;;;4.35;1.88;;;32.60;95.40;;;;;;5069197;28;20037;-53
2022/07/14 09:58:32;;;;;;;8.23;1.65;;;32.60;84.60;;;;;;5066921;28;20044;-53
2022/07/14 10:01:02;;;;;;;5.40;1.60;;;32.60;85.10;;;;;;5062434;28;20069;-51
2022/07/14 10:03:30;;;;;;;2.50;1.33;;;32.50;84.80;;;;;;5066128;28;20532;-50
2022/07/14 10:05:58;;;;;;;3.85;1.48;;;32.40;84.00;;;;;;5063115;28;20335;-51
2022/07/14 10:08:54;;;;;;;6.60;1.60;;;32.60;84.40;;;;;;5005234;28;20077;-52
2022/07/14 10:11:20;;;;;;;2.50;1.60;;;32.70;83.70;;;;;;4994306;28;20280;-54
2022/07/14 10:13:46;;;;;;;3.88;1.65;;;32.70;83.60;;;;;;5002429;28;20054;-53
2022/07/14 10:16:14;;;;;;;7.05;1.73;;;32.30;83.90;;;;;;4978535;28;20064;-50
2022/07/14 10:18:45;;;;;;;4.10;1.83;;;32.60;84.10;;;;;;5005094;28;20073;-51
2022/07/14 10:21:11;;;;;;;1.27;1.17;;;32.60;84.20;;;;;;4951246;28;20125;-52
2022/07/14 10:23:38;;;;;;;5.20;1.58;;;32.70;84.60;;;;;;4958190;28;20125;-51
2022/07/14 10:26:09;;;;;;;3.83;1.65;;;32.80;83.30;;;;;;4961205;28;20817;-51
2022/07/14 10:28:37;;;;;;;2.05;1.35;;;32.90;83.00;;;;;;5002633;28;20081;-51
2022/07/14 10:31:49;;;;;;;3.88;1.50;;;33.20;83.20;;;;;;4942662;28;20043;-52
2022/07/14 10:34:41;;;;;;;4.78;1.23;;;33.00;82.00;;;;;;4939803;29;20492;-51
2022/07/14 10:37:41;;;;;;;3.85;1.23;;;32.80;81.90;;;;;;4940709;29;20121;-51
2022/07/14 10:40:20;;;;;;;5.43;1.23;;;33.10;79.10;;;;;;4983896;28;20060;-51
2022/07/14 10:42:55;;;;;;;2.90;1.20;;;33.30;80.40;;;;;;4999169;28;20034;-52
2022/07/14 10:45:22;;;;;;;1.75;1.23;;;33.30;81.80;;;;;;4998832;28;20069;-51
2022/07/14 10:47:53;;;;;;;3.92;1.10;;;33.50;80.70;;;;;;5004566;28;20029;-52
2022/07/14 10:50:20;;;;;;;2.55;1.15;;;33.70;79.90;;;;;;5001309;28;20077;-51
2022/07/14 10:52:54;;;;;;;4.00;1.30;;;33.80;80.80;;;;;;5000638;28;20042;-52
2022/07/14 10:55:27;;;;;;;3.08;1.38;;;33.70;78.90;;;;;;4997161;28;20052;-51
2022/07/14 10:57:59;;;;;;;4.13;1.30;;;33.20;80.10;;;;;;5000112;28;20034;-52
2022/07/14 11:00:47;;;;;;;;;;;33.10;79.20;;;;;;5002177;28;20077;-52
2022/07/14 11:03:26;;;;;;;3.30;1.40;;;33.20;76.70;;;;;;5060764;28;20680;-52
2022/07/14 11:06:08;;;;;;;5.70;1.45;;;33.70;76.60;;;;;;5014466;28;20043;-51
2022/07/14 11:08:37;;;;;;;3.50;1.10;;;33.30;76.90;;;;;;5064245;28;20036;-51
2022/07/14 11:11:08;;;;;;;3.15;0.80;;;33.50;75.70;;;;;;5062742;28;20055;-52
2022/07/14 11:13:54;;;;;;;3.85;1.05;;;33.60;73.70;;;;;;5058180;28;20033;-51
2022/07/14 11:16:50;;;;;;;1.77;1.10;;;34.00;76.20;;;;;;5045919;28;20032;-51
2022/07/14 11:19:50;;;;;;;2.00;0.95;;;34.20;76.60;;;;;;5064572;28;20029;-51
2022/07/14 11:22:20;;;;;;;1.20;0.93;;;34.20;75.70;;;;;;5064809;28;20028;-51
2022/07/14 11:24:58;;;;;;;2.72;0.93;;;34.40;75.70;;;;;;5031841;28;20481;-51
2022/07/14 11:27:38;;;;;;;1.63;0.70;;;33.90;74.80;;;;;;5026894;28;20045;-51
2022/07/14 11:30:20;;;;;;;1.20;1.00;;;34.00;82.00;;;;;;5061160;28;20033;-51
2022/07/14 11:32:49;;;;;;;;;;;33.80;73.80;;;;;;5061871;28;20028;-51
2022/07/14 11:38:21;;;;;;;3.00;1.60;;;;;;;;;;5064204;28;20095;-53
2022/07/14 11:40:52;;;;;;;1.98;0.85;;;34.40;98.70;;;;;;5032663;28;20191;-51
2022/07/14 11:43:30;;;;;;;2.72;1.15;;;;;;;;;;5058581;28;20075;-51
2022/07/14 11:45:58;;;;;;;2.15;1.15;;;;;;;;;;5026107;28;20037;-52
2022/07/14 11:48:35;;;;;;;3.03;0.95;;;;;;;;;;5067701;28;20069;-51
2022/07/14 11:51:06;;;;;;;2.78;1.00;;;;;;;;;;5062962;28;20436;-52
2022/07/14 11:53:32;;;;;;;3.92;1.00;;;;;;;;;;5062084;28;20036;-51
2022/07/14 11:55:59;;;;;;;0.88;0.88;;;;;;;;;;5062303;28;20032;-51
2022/07/14 11:58:26;;;;;;;1.73;0.77;;;;;;;;;;5066824;28;20040;-51
2022/07/14 12:00:53;;;;;;;2.35;1.23;;;;;;;;;;5059848;28;20036;-52
2022/07/14 12:03:19;;;;;;;4.35;1.02;;;;;;;;;;5044546;28;20032;-52
2022/07/14 12:05:49;;;;;;;1.10;1.00;;;;;;;;;;5058188;28;20039;-52
2022/07/14 12:08:27;;;;;;;2.13;0.93;;;35.70;92.00;;;;;;5064739;28;20036;-52
2022/07/14 12:10:53;;;;;;;2.17;0.95;;;35.90;72.80;;;;;;5064196;28;20031;-52
2022/07/14 12:13:19;;;;;;;5.07;1.00;;;35.90;81.00;;;;;;5068596;28;20029;-52
2022/07/14 12:15:47;;;;;;;1.98;1.20;;;35.90;77.90;;;;;;5029870;28;20071;-52
2022/07/14 12:18:13;;;;;;;3.63;1.20;;;;;;;;;;5067487;28;20056;-53
2022/07/14 12:20:41;;;;;;;2.13;0.90;;;;;;;;;;5062129;28;20174;-51
2022/07/14 12:23:07;;;;;;;1.40;0.80;;;35.00;96.20;;;;;;5051655;28;20446;-52
2022/07/14 12:25:39;;;;;;;2.20;0.90;;;35.20;95.20;;;;;;5064085;28;20450;-51
2022/07/14 12:28:09;;;;;;;3.63;1.35;;;35.50;84.10;;;;;;5067221;28;20385;-51
2022/07/14 12:30:45;;;;;;;2.03;0.80;;;;;;;;;;5068911;28;20032;-51
2022/07/14 12:33:13;;;;;;;5.03;0.88;;;35.00;82.90;;;;;;5068057;28;20025;-52
2022/07/14 12:35:40;;;;;;;3.50;0.90;;;35.30;76.70;;;;;;5038164;28;20056;-53
2022/07/14 12:38:08;;;;;;;0.90;0.80;;;35.60;78.50;;;;;;5030545;28;20506;-51
2022/07/14 12:40:34;;;;;;;3.05;1.00;;;35.50;71.90;;;;;;5067305;28;20070;-51
2022/07/14 12:43:01;;;;;;;3.33;1.00;;;35.50;72.50;;;;;;5067950;28;20075;-52
2022/07/14 12:45:26;;;;;;;2.53;1.30;;;35.60;71.70;;;;;;5066643;28;20072;-52
2022/07/14 12:48:01;;;;;;;1.38;0.80;;;35.70;79.60;;;;;;5006792;28;20057;-51
2022/07/14 12:50:28;;;;;;;1.08;0.90;;;35.50;94.10;;;;;;5065927;28;20028;-51
2022/07/14 12:52:56;;;;;;;1.25;0.80;;;35.80;94.10;;;;;;5068751;28;20024;-52
2022/07/14 12:55:33;;;;;;;2.65;1.05;;;35.90;71.60;;;;;;5066851;28;20059;-52
2022/07/14 12:58:07;;;;;;;2.05;1.20;;;35.70;71.50;;;;;;5063188;28;20029;-52
2022/07/14 13:00:34;;;;;;;3.75;1.50;;;35.80;70.80;;;;;;5069111;28;20025;-51
2022/07/14 13:03:07;;;;;;;6.28;1.10;;;;;;;;;;5061954;28;20032;-53
2022/07/14 13:05:34;;;;;;;2.25;0.90;;;;;;;;;;5071461;28;20036;-52
2022/07/14 13:07:59;;;;;;;2.80;0.88;;;35.80;69.80;;;;;;5065136;28;20056;-52
2022/07/14 13:10:26;;;;;;;3.33;1.05;;;35.90;70.60;;;;;;5069995;28;20075;-54
2022/07/14 13:12:56;;;;;;;7.18;2.45;;;;;;;;;;5058982;28;20508;-51
2022/07/14 13:15:24;;;;;;;1.65;1.00;;;36.30;69.70;;;;;;5065010;28;20084;-52
2022/07/14 13:18:03;;;;;;;6.03;1.50;;;36.40;69.90;;;;;;5051167;28;20494;-52